Česky Dansk Deutsch English Español Suomi Français Magyar Italiano Nederlands norsk Polski Português svenska Türkçe

 

Het Weer

Craiova (Roemenië)

10:30, 18 augustus 2016 (GMT)

NWNNE
WE
SWSSE
Home            
Craiova Rousse Sibiu Sofia Observ. Bucuresti Otopeni Bucuresti / Imh Caransebes Gorna Orechovista Nis Vrsac Plovdiv Tirgu Mures Timisoara Camp Bondsteel Cluj-Napoca Beograd / Surcin Arad Pristina Skopje-Petrovec Bekescsaba Varna Oradea Burgas

Om een weerknop op uw website of weblog te plaatsen, copieer onderstaande code en plak die in uw pagina. In het eerste vakje staat HTML-code, in het tweede vakje UBB-code.


Add to Google

Details

Wind speed:2 bf, 4 kn, 2.1 m/s, 4.6 miles/h, 7.4 km/h
Wind direction:SSW, 200° - NW, 320°
Visibility:Greater than 10000 m, 10 km, 32800 ft, 6.2 miles
Clouds:CAVOC
Temperature:23°C, 73°F
Gefühlte Temperatur:24°C, 76°F
Dew-point:16°C, 61°F
Atmospheric pressure:1012 hPa, 759.1 mmHg, 29.88 inHg, 0.999 atm
Relative humidity:64.7 %
METAR:LRCV 181030Z 26004KT 200V320 CAVOK 23/16 Q1012

Snelkoppelingen

Actuele weersinformatie van de hele wereld. Voeg locaties toe met het plus (+) symbool. Deze snelkoppelingen kunnen worden toegevoegd aan Google.

Lid van de Technetium groep

website free tracking
StatCounter NetStat W3C Validator

02-10-2022 09:08:15
astro.technetium.be money.technetium.be phote.technetium.be tafeltennistafel.technetium.be www.ligfiets.net